sensor_id;sensor_type;location;lat;lon;timestamp;temperature;humidity
45837;DHT22;31548;51.420;-0.040;2023-05-10T00:00:10;12.70;99.90
45837;DHT22;31548;51.420;-0.040;2023-05-10T00:02:41;12.60;99.90
45837;DHT22;31548;51.420;-0.040;2023-05-10T00:05:08;12.70;99.90
45837;DHT22;31548;51.420;-0.040;2023-05-10T00:07:36;12.60;99.90
45837;DHT22;31548;51.420;-0.040;2023-05-10T00:10:03;12.70;99.90
45837;DHT22;31548;51.420;-0.040;2023-05-10T00:12:31;12.60;99.90
45837;DHT22;31548;51.420;-0.040;2023-05-10T00:14:58;12.60;99.90
45837;DHT22;31548;51.420;-0.040;2023-05-10T00:17:25;12.60;99.90
45837;DHT22;31548;51.420;-0.040;2023-05-10T00:19:52;12.60;99.90
45837;DHT22;31548;51.420;-0.040;2023-05-10T00:22:20;12.60;99.90
45837;DHT22;31548;51.420;-0.040;2023-05-10T00:24:47;12.40;99.90
45837;DHT22;31548;51.420;-0.040;2023-05-10T00:27:15;12.50;99.90
45837;DHT22;31548;51.420;-0.040;2023-05-10T00:29:42;12.50;99.90
45837;DHT22;31548;51.420;-0.040;2023-05-10T00:32:09;12.40;99.90
45837;DHT22;31548;51.420;-0.040;2023-05-10T00:34:37;12.40;99.90
45837;DHT22;31548;51.420;-0.040;2023-05-10T00:37:05;12.40;99.90
45837;DHT22;31548;51.420;-0.040;2023-05-10T00:39:32;12.40;99.90
45837;DHT22;31548;51.420;-0.040;2023-05-10T00:41:59;12.40;99.90
45837;DHT22;31548;51.420;-0.040;2023-05-10T00:44:27;12.40;99.90
45837;DHT22;31548;51.420;-0.040;2023-05-10T00:46:54;12.40;99.90
45837;DHT22;31548;51.420;-0.040;2023-05-10T00:49:21;12.40;99.90
45837;DHT22;31548;51.420;-0.040;2023-05-10T00:51:49;12.40;99.90
45837;DHT22;31548;51.420;-0.040;2023-05-10T00:54:17;12.50;99.90
45837;DHT22;31548;51.420;-0.040;2023-05-10T00:56:45;12.40;99.90
45837;DHT22;31548;51.420;-0.040;2023-05-10T00:59:16;12.40;99.90
45837;DHT22;31548;51.420;-0.040;2023-05-10T01:01:44;12.40;99.90
45837;DHT22;31548;51.420;-0.040;2023-05-10T01:04:13;12.40;99.90
45837;DHT22;31548;51.420;-0.040;2023-05-10T01:06:41;12.40;99.90
45837;DHT22;31548;51.420;-0.040;2023-05-10T01:09:09;12.40;99.90
45837;DHT22;31548;51.420;-0.040;2023-05-10T01:11:39;12.40;99.90
45837;DHT22;31548;51.420;-0.040;2023-05-10T01:14:07;12.50;99.90
45837;DHT22;31548;51.420;-0.040;2023-05-10T01:16:37;12.50;99.90
45837;DHT22;31548;51.420;-0.040;2023-05-10T01:19:26;12.50;99.90
45837;DHT22;31548;51.420;-0.040;2023-05-10T01:22:34;12.50;99.90
45837;DHT22;31548;51.420;-0.040;2023-05-10T01:36:25;12.60;99.90
45837;DHT22;31548;51.420;-0.040;2023-05-10T01:41:56;12.60;99.90
45837;DHT22;31548;51.420;-0.040;2023-05-10T01:47:43;12.50;99.90
45837;DHT22;31548;51.420;-0.040;2023-05-10T01:50:21;12.60;99.90
45837;DHT22;31548;51.420;-0.040;2023-05-10T01:52:58;12.50;99.90
45837;DHT22;31548;51.420;-0.040;2023-05-10T01:55:32;12.50;99.90
45837;DHT22;31548;51.420;-0.040;2023-05-10T01:58:07;12.50;99.90
45837;DHT22;31548;51.420;-0.040;2023-05-10T02:00:35;12.50;99.90
45837;DHT22;31548;51.420;-0.040;2023-05-10T02:03:06;12.50;99.90
45837;DHT22;31548;51.420;-0.040;2023-05-10T02:05:37;12.40;99.90
45837;DHT22;31548;51.420;-0.040;2023-05-10T02:08:06;12.40;99.90
45837;DHT22;31548;51.420;-0.040;2023-05-10T02:10:37;12.40;99.90
45837;DHT22;31548;51.420;-0.040;2023-05-10T02:13:07;12.40;99.90
45837;DHT22;31548;51.420;-0.040;2023-05-10T02:15:36;12.40;99.90
45837;DHT22;31548;51.420;-0.040;2023-05-10T02:18:05;12.40;99.90
45837;DHT22;31548;51.420;-0.040;2023-05-10T02:20:33;12.40;99.90
45837;DHT22;31548;51.420;-0.040;2023-05-10T02:23:02;12.40;99.90
45837;DHT22;31548;51.420;-0.040;2023-05-10T02:25:31;12.30;99.90
45837;DHT22;31548;51.420;-0.040;2023-05-10T02:28:01;12.30;99.90
45837;DHT22;31548;51.420;-0.040;2023-05-10T02:30:31;12.30;99.90
45837;DHT22;31548;51.420;-0.040;2023-05-10T02:32:59;12.30;99.90
45837;DHT22;31548;51.420;-0.040;2023-05-10T02:35:28;12.30;99.90
45837;DHT22;31548;51.420;-0.040;2023-05-10T02:37:56;12.30;99.90
45837;DHT22;31548;51.420;-0.040;2023-05-10T02:40:26;12.30;99.90
45837;DHT22;31548;51.420;-0.040;2023-05-10T02:42:56;12.30;99.90
45837;DHT22;31548;51.420;-0.040;2023-05-10T02:45:28;12.30;99.90
45837;DHT22;31548;51.420;-0.040;2023-05-10T02:47:56;12.20;99.90
45837;DHT22;31548;51.420;-0.040;2023-05-10T02:50:27;12.30;99.90
45837;DHT22;31548;51.420;-0.040;2023-05-10T02:53:00;12.30;99.90
45837;DHT22;31548;51.420;-0.040;2023-05-10T02:55:33;12.20;99.90
45837;DHT22;31548;51.420;-0.040;2023-05-10T02:58:03;12.20;99.90
45837;DHT22;31548;51.420;-0.040;2023-05-10T03:00:31;12.20;99.90
45837;DHT22;31548;51.420;-0.040;2023-05-10T03:02:58;12.20;99.90
45837;DHT22;31548;51.420;-0.040;2023-05-10T03:05:27;12.20;99.90
45837;DHT22;31548;51.420;-0.040;2023-05-10T03:07:56;12.20;99.90
45837;DHT22;31548;51.420;-0.040;2023-05-10T03:10:27;12.10;99.90
45837;DHT22;31548;51.420;-0.040;2023-05-10T03:13:26;12.10;99.90
45837;DHT22;31548;51.420;-0.040;2023-05-10T03:16:10;12.10;99.90
45837;DHT22;31548;51.420;-0.040;2023-05-10T03:18:44;12.10;99.90
45837;DHT22;31548;51.420;-0.040;2023-05-10T03:21:17;12.10;99.90
45837;DHT22;31548;51.420;-0.040;2023-05-10T03:23:54;12.10;99.90
45837;DHT22;31548;51.420;-0.040;2023-05-10T03:26:26;12.10;99.90
45837;DHT22;31548;51.420;-0.040;2023-05-10T03:29:04;12.10;99.90
45837;DHT22;31548;51.420;-0.040;2023-05-10T03:31:32;12.10;99.90
45837;DHT22;31548;51.420;-0.040;2023-05-10T03:34:00;12.10;99.90
45837;DHT22;31548;51.420;-0.040;2023-05-10T03:36:28;12.10;99.90
45837;DHT22;31548;51.420;-0.040;2023-05-10T03:38:55;12.10;99.90
45837;DHT22;31548;51.420;-0.040;2023-05-10T03:41:23;12.10;99.90
45837;DHT22;31548;51.420;-0.040;2023-05-10T03:43:53;12.00;99.90
45837;DHT22;31548;51.420;-0.040;2023-05-10T03:46:21;12.00;99.90
45837;DHT22;31548;51.420;-0.040;2023-05-10T03:48:49;12.00;99.90
45837;DHT22;31548;51.420;-0.040;2023-05-10T03:51:16;12.00;99.90
45837;DHT22;31548;51.420;-0.040;2023-05-10T03:53:43;12.00;99.90
45837;DHT22;31548;51.420;-0.040;2023-05-10T03:56:11;11.90;99.90
45837;DHT22;31548;51.420;-0.040;2023-05-10T03:58:38;12.00;99.90
45837;DHT22;31548;51.420;-0.040;2023-05-10T04:01:05;12.00;99.90
45837;DHT22;31548;51.420;-0.040;2023-05-10T04:03:32;11.90;99.90
45837;DHT22;31548;51.420;-0.040;2023-05-10T04:06:00;11.90;99.90
45837;DHT22;31548;51.420;-0.040;2023-05-10T04:08:29;11.90;99.90
45837;DHT22;31548;51.420;-0.040;2023-05-10T04:11:12;11.80;99.90
45837;DHT22;31548;51.420;-0.040;2023-05-10T04:13:39;11.90;99.90
45837;DHT22;31548;51.420;-0.040;2023-05-10T04:16:07;11.80;99.90
45837;DHT22;31548;51.420;-0.040;2023-05-10T04:18:34;11.80;99.90
45837;DHT22;31548;51.420;-0.040;2023-05-10T04:21:02;11.80;99.90
45837;DHT22;31548;51.420;-0.040;2023-05-10T04:23:29;11.70;99.90
45837;DHT22;31548;51.420;-0.040;2023-05-10T04:26:00;11.70;99.90
45837;DHT22;31548;51.420;-0.040;2023-05-10T04:28:28;11.70;99.90
45837;DHT22;31548;51.420;-0.040;2023-05-10T04:31:06;11.70;99.90
45837;DHT22;31548;51.420;-0.040;2023-05-10T04:33:34;11.70;99.90
45837;DHT22;31548;51.420;-0.040;2023-05-10T04:36:03;11.60;99.90
45837;DHT22;31548;51.420;-0.040;2023-05-10T04:38:30;11.60;99.90
45837;DHT22;31548;51.420;-0.040;2023-05-10T04:41:07;11.60;99.90
45837;DHT22;31548;51.420;-0.040;2023-05-10T04:43:35;11.60;99.90
45837;DHT22;31548;51.420;-0.040;2023-05-10T04:46:04;11.50;99.90
45837;DHT22;31548;51.420;-0.040;2023-05-10T04:48:31;11.50;99.90
45837;DHT22;31548;51.420;-0.040;2023-05-10T04:50:58;11.50;99.90
45837;DHT22;31548;51.420;-0.040;2023-05-10T04:53:25;11.50;99.90
45837;DHT22;31548;51.420;-0.040;2023-05-10T04:55:53;11.50;99.90
45837;DHT22;31548;51.420;-0.040;2023-05-10T04:58:20;11.40;99.90
45837;DHT22;31548;51.420;-0.040;2023-05-10T05:00:47;11.40;99.90
45837;DHT22;31548;51.420;-0.040;2023-05-10T05:03:15;11.30;99.90
45837;DHT22;31548;51.420;-0.040;2023-05-10T05:05:44;11.30;99.90
45837;DHT22;31548;51.420;-0.040;2023-05-10T05:08:11;11.30;99.90
45837;DHT22;31548;51.420;-0.040;2023-05-10T05:10:40;11.30;99.90
45837;DHT22;31548;51.420;-0.040;2023-05-10T05:13:07;11.20;99.90
45837;DHT22;31548;51.420;-0.040;2023-05-10T05:15:34;11.30;99.90
45837;DHT22;31548;51.420;-0.040;2023-05-10T05:18:01;11.30;99.90
45837;DHT22;31548;51.420;-0.040;2023-05-10T05:20:32;11.30;99.90
45837;DHT22;31548;51.420;-0.040;2023-05-10T05:23:00;11.20;99.90
45837;DHT22;31548;51.420;-0.040;2023-05-10T05:25:28;11.30;99.90
45837;DHT22;31548;51.420;-0.040;2023-05-10T05:27:55;11.30;99.90
45837;DHT22;31548;51.420;-0.040;2023-05-10T05:30:22;11.30;99.90
45837;DHT22;31548;51.420;-0.040;2023-05-10T05:32:49;11.30;99.90
45837;DHT22;31548;51.420;-0.040;2023-05-10T05:35:17;11.30;99.90
45837;DHT22;31548;51.420;-0.040;2023-05-10T05:37:44;11.40;99.90
45837;DHT22;31548;51.420;-0.040;2023-05-10T05:40:15;11.30;99.90
45837;DHT22;31548;51.420;-0.040;2023-05-10T05:42:42;11.40;99.90
45837;DHT22;31548;51.420;-0.040;2023-05-10T05:45:09;11.40;99.90
45837;DHT22;31548;51.420;-0.040;2023-05-10T05:47:40;11.40;99.90
45837;DHT22;31548;51.420;-0.040;2023-05-10T05:50:08;11.40;99.90
45837;DHT22;31548;51.420;-0.040;2023-05-10T05:52:35;11.40;99.90
45837;DHT22;31548;51.420;-0.040;2023-05-10T05:55:03;11.40;99.90
45837;DHT22;31548;51.420;-0.040;2023-05-10T05:57:30;11.40;99.90
45837;DHT22;31548;51.420;-0.040;2023-05-10T05:59:58;11.50;99.90
45837;DHT22;31548;51.420;-0.040;2023-05-10T06:02:25;11.50;99.90
45837;DHT22;31548;51.420;-0.040;2023-05-10T06:04:52;11.50;99.90
45837;DHT22;31548;51.420;-0.040;2023-05-10T06:07:20;11.40;99.90
45837;DHT22;31548;51.420;-0.040;2023-05-10T06:09:47;11.50;99.90
45837;DHT22;31548;51.420;-0.040;2023-05-10T06:12:14;11.60;99.90
45837;DHT22;31548;51.420;-0.040;2023-05-10T06:14:41;11.50;99.90
45837;DHT22;31548;51.420;-0.040;2023-05-10T06:17:09;11.60;99.90
45837;DHT22;31548;51.420;-0.040;2023-05-10T06:19:36;11.60;99.90
45837;DHT22;31548;51.420;-0.040;2023-05-10T06:22:03;11.60;99.90
45837;DHT22;31548;51.420;-0.040;2023-05-10T06:24:31;11.60;99.90
45837;DHT22;31548;51.420;-0.040;2023-05-10T06:26:58;11.70;99.90
45837;DHT22;31548;51.420;-0.040;2023-05-10T06:29:27;11.80;99.90
45837;DHT22;31548;51.420;-0.040;2023-05-10T06:31:54;11.80;99.90
45837;DHT22;31548;51.420;-0.040;2023-05-10T06:34:21;11.80;99.90
45837;DHT22;31548;51.420;-0.040;2023-05-10T06:36:49;11.80;99.90
45837;DHT22;31548;51.420;-0.040;2023-05-10T06:39:16;11.90;99.90
45837;DHT22;31548;51.420;-0.040;2023-05-10T06:41:43;11.90;99.90
45837;DHT22;31548;51.420;-0.040;2023-05-10T06:44:14;12.00;99.90
45837;DHT22;31548;51.420;-0.040;2023-05-10T06:46:42;11.80;99.90
45837;DHT22;31548;51.420;-0.040;2023-05-10T06:49:09;11.80;99.90
45837;DHT22;31548;51.420;-0.040;2023-05-10T06:51:37;11.80;99.90
45837;DHT22;31548;51.420;-0.040;2023-05-10T06:54:04;11.80;99.90
45837;DHT22;31548;51.420;-0.040;2023-05-10T06:56:31;11.80;99.90
45837;DHT22;31548;51.420;-0.040;2023-05-10T06:58:58;11.90;99.90
45837;DHT22;31548;51.420;-0.040;2023-05-10T07:01:26;11.90;99.90
45837;DHT22;31548;51.420;-0.040;2023-05-10T07:03:53;11.90;99.90
45837;DHT22;31548;51.420;-0.040;2023-05-10T07:06:20;12.00;99.90
45837;DHT22;31548;51.420;-0.040;2023-05-10T07:09:00;12.00;99.90
45837;DHT22;31548;51.420;-0.040;2023-05-10T07:11:27;11.90;99.90
45837;DHT22;31548;51.420;-0.040;2023-05-10T07:13:54;11.90;99.90
45837;DHT22;31548;51.420;-0.040;2023-05-10T07:16:22;12.00;99.90
45837;DHT22;31548;51.420;-0.040;2023-05-10T07:18:49;12.10;99.90
45837;DHT22;31548;51.420;-0.040;2023-05-10T07:21:17;12.10;99.90
45837;DHT22;31548;51.420;-0.040;2023-05-10T07:23:44;12.10;99.90
45837;DHT22;31548;51.420;-0.040;2023-05-10T07:26:12;12.20;99.90
45837;DHT22;31548;51.420;-0.040;2023-05-10T07:28:39;12.20;99.90
45837;DHT22;31548;51.420;-0.040;2023-05-10T07:31:06;12.30;99.90
45837;DHT22;31548;51.420;-0.040;2023-05-10T07:33:34;12.40;99.90
45837;DHT22;31548;51.420;-0.040;2023-05-10T07:36:01;12.40;99.90
45837;DHT22;31548;51.420;-0.040;2023-05-10T07:38:28;12.50;99.90
45837;DHT22;31548;51.420;-0.040;2023-05-10T07:40:55;12.60;99.90
45837;DHT22;31548;51.420;-0.040;2023-05-10T07:43:23;12.60;99.90
45837;DHT22;31548;51.420;-0.040;2023-05-10T07:45:50;12.70;99.90
45837;DHT22;31548;51.420;-0.040;2023-05-10T07:48:21;12.70;99.90
45837;DHT22;31548;51.420;-0.040;2023-05-10T07:50:48;12.80;99.90
45837;DHT22;31548;51.420;-0.040;2023-05-10T07:53:15;12.80;99.90
45837;DHT22;31548;51.420;-0.040;2023-05-10T07:55:43;12.90;99.90
45837;DHT22;31548;51.420;-0.040;2023-05-10T07:58:10;13.00;99.90
45837;DHT22;31548;51.420;-0.040;2023-05-10T08:00:38;13.00;99.90
45837;DHT22;31548;51.420;-0.040;2023-05-10T08:03:06;13.10;99.90
45837;DHT22;31548;51.420;-0.040;2023-05-10T08:05:33;13.20;99.90
45837;DHT22;31548;51.420;-0.040;2023-05-10T08:08:01;13.30;99.90
45837;DHT22;31548;51.420;-0.040;2023-05-10T08:10:29;13.30;99.90
45837;DHT22;31548;51.420;-0.040;2023-05-10T08:12:56;13.30;99.90
45837;DHT22;31548;51.420;-0.040;2023-05-10T08:15:25;13.50;99.90
45837;DHT22;31548;51.420;-0.040;2023-05-10T08:17:52;13.50;99.90
45837;DHT22;31548;51.420;-0.040;2023-05-10T08:20:20;13.50;99.90
45837;DHT22;31548;51.420;-0.040;2023-05-10T08:22:47;13.70;99.90
45837;DHT22;31548;51.420;-0.040;2023-05-10T08:25:17;13.70;99.90
45837;DHT22;31548;51.420;-0.040;2023-05-10T08:27:45;13.70;99.90
45837;DHT22;31548;51.420;-0.040;2023-05-10T08:30:12;13.70;99.90
45837;DHT22;31548;51.420;-0.040;2023-05-10T08:32:40;13.80;99.90
45837;DHT22;31548;51.420;-0.040;2023-05-10T08:35:07;13.80;99.90
45837;DHT22;31548;51.420;-0.040;2023-05-10T08:37:35;13.90;99.90
45837;DHT22;31548;51.420;-0.040;2023-05-10T08:40:02;13.90;99.90
45837;DHT22;31548;51.420;-0.040;2023-05-10T08:42:34;14.00;99.90
45837;DHT22;31548;51.420;-0.040;2023-05-10T08:45:03;14.00;99.90
45837;DHT22;31548;51.420;-0.040;2023-05-10T08:47:31;14.20;99.90
45837;DHT22;31548;51.420;-0.040;2023-05-10T08:49:59;14.20;99.90
45837;DHT22;31548;51.420;-0.040;2023-05-10T08:52:28;14.20;99.90
45837;DHT22;31548;51.420;-0.040;2023-05-10T08:54:57;14.30;99.90
45837;DHT22;31548;51.420;-0.040;2023-05-10T08:57:24;14.40;99.90
45837;DHT22;31548;51.420;-0.040;2023-05-10T08:59:51;14.40;99.90
45837;DHT22;31548;51.420;-0.040;2023-05-10T09:02:20;14.40;99.90
45837;DHT22;31548;51.420;-0.040;2023-05-10T09:04:48;14.50;99.90
45837;DHT22;31548;51.420;-0.040;2023-05-10T09:07:16;14.60;99.90
45837;DHT22;31548;51.420;-0.040;2023-05-10T09:09:44;14.60;99.90
45837;DHT22;31548;51.420;-0.040;2023-05-10T09:12:13;14.70;99.90
45837;DHT22;31548;51.420;-0.040;2023-05-10T09:14:43;14.80;99.90
45837;DHT22;31548;51.420;-0.040;2023-05-10T09:17:11;14.90;99.90
45837;DHT22;31548;51.420;-0.040;2023-05-10T09:19:39;14.70;99.90
45837;DHT22;31548;51.420;-0.040;2023-05-10T09:22:06;14.90;99.90
45837;DHT22;31548;51.420;-0.040;2023-05-10T09:24:33;14.90;99.90
45837;DHT22;31548;51.420;-0.040;2023-05-10T09:27:01;14.90;99.90
45837;DHT22;31548;51.420;-0.040;2023-05-10T09:29:39;14.90;99.90
45837;DHT22;31548;51.420;-0.040;2023-05-10T09:32:07;14.90;99.90
45837;DHT22;31548;51.420;-0.040;2023-05-10T09:34:34;14.90;99.90
45837;DHT22;31548;51.420;-0.040;2023-05-10T09:37:02;14.80;99.90
45837;DHT22;31548;51.420;-0.040;2023-05-10T09:39:37;15.00;99.90
45837;DHT22;31548;51.420;-0.040;2023-05-10T09:42:07;15.10;99.90
45837;DHT22;31548;51.420;-0.040;2023-05-10T09:44:35;15.20;99.90
45837;DHT22;31548;51.420;-0.040;2023-05-10T09:47:02;15.20;99.90
45837;DHT22;31548;51.420;-0.040;2023-05-10T09:49:30;15.40;99.90
45837;DHT22;31548;51.420;-0.040;2023-05-10T09:52:01;15.50;99.90
45837;DHT22;31548;51.420;-0.040;2023-05-10T09:54:29;15.50;99.90
45837;DHT22;31548;51.420;-0.040;2023-05-10T09:56:56;15.50;99.90
45837;DHT22;31548;51.420;-0.040;2023-05-10T09:59:27;15.50;99.90
45837;DHT22;31548;51.420;-0.040;2023-05-10T10:01:59;15.50;99.90
45837;DHT22;31548;51.420;-0.040;2023-05-10T10:04:27;15.60;99.90
45837;DHT22;31548;51.420;-0.040;2023-05-10T10:07:01;15.70;99.90
45837;DHT22;31548;51.420;-0.040;2023-05-10T10:09:30;15.80;99.90
45837;DHT22;31548;51.420;-0.040;2023-05-10T10:12:02;15.90;99.90
45837;DHT22;31548;51.420;-0.040;2023-05-10T10:14:29;15.90;99.90
45837;DHT22;31548;51.420;-0.040;2023-05-10T10:16:57;15.90;99.90
45837;DHT22;31548;51.420;-0.040;2023-05-10T10:19:35;15.80;99.90
45837;DHT22;31548;51.420;-0.040;2023-05-10T10:22:03;15.90;99.90
45837;DHT22;31548;51.420;-0.040;2023-05-10T10:24:31;15.90;99.90
45837;DHT22;31548;51.420;-0.040;2023-05-10T10:30:20;16.10;99.90
45837;DHT22;31548;51.420;-0.040;2023-05-10T10:35:44;16.10;99.90
45837;DHT22;31548;51.420;-0.040;2023-05-10T10:38:13;16.20;99.90
45837;DHT22;31548;51.420;-0.040;2023-05-10T10:40:40;16.40;99.90
45837;DHT22;31548;51.420;-0.040;2023-05-10T10:43:26;16.70;99.90
45837;DHT22;31548;51.420;-0.040;2023-05-10T10:46:14;16.70;99.90
45837;DHT22;31548;51.420;-0.040;2023-05-10T10:49:08;16.70;99.90
45837;DHT22;31548;51.420;-0.040;2023-05-10T10:51:40;16.60;99.90
45837;DHT22;31548;51.420;-0.040;2023-05-10T10:54:32;16.60;99.90
45837;DHT22;31548;51.420;-0.040;2023-05-10T10:57:12;16.70;99.90
45837;DHT22;31548;51.420;-0.040;2023-05-10T10:59:43;16.90;99.90
45837;DHT22;31548;51.420;-0.040;2023-05-10T11:02:34;17.20;99.90
45837;DHT22;31548;51.420;-0.040;2023-05-10T11:07:57;17.00;99.90
45837;DHT22;31548;51.420;-0.040;2023-05-10T11:10:25;17.20;99.90
45837;DHT22;31548;51.420;-0.040;2023-05-10T11:13:03;17.20;99.90
45837;DHT22;31548;51.420;-0.040;2023-05-10T11:15:39;17.40;99.90
45837;DHT22;31548;51.420;-0.040;2023-05-10T11:18:27;17.70;99.90
45837;DHT22;31548;51.420;-0.040;2023-05-10T11:20:59;17.60;99.90
45837;DHT22;31548;51.420;-0.040;2023-05-10T11:23:31;17.60;99.90
45837;DHT22;31548;51.420;-0.040;2023-05-10T11:26:00;17.50;99.90
45837;DHT22;31548;51.420;-0.040;2023-05-10T11:28:32;17.30;99.90
45837;DHT22;31548;51.420;-0.040;2023-05-10T11:30:59;17.40;99.90
45837;DHT22;31548;51.420;-0.040;2023-05-10T11:33:26;17.70;99.90
45837;DHT22;31548;51.420;-0.040;2023-05-10T11:35:54;18.00;99.90
45837;DHT22;31548;51.420;-0.040;2023-05-10T11:38:21;18.20;99.90
45837;DHT22;31548;51.420;-0.040;2023-05-10T11:40:51;18.60;99.90
45837;DHT22;31548;51.420;-0.040;2023-05-10T11:43:23;18.70;99.90
45837;DHT22;31548;51.420;-0.040;2023-05-10T11:45:50;18.50;99.90
45837;DHT22;31548;51.420;-0.040;2023-05-10T11:48:18;18.30;99.90
45837;DHT22;31548;51.420;-0.040;2023-05-10T11:50:49;18.40;99.90
45837;DHT22;31548;51.420;-0.040;2023-05-10T11:53:17;18.90;99.90
45837;DHT22;31548;51.420;-0.040;2023-05-10T11:55:47;19.40;99.90
45837;DHT22;31548;51.420;-0.040;2023-05-10T11:58:15;19.60;99.90
45837;DHT22;31548;51.420;-0.040;2023-05-10T12:00:42;19.40;99.90
45837;DHT22;31548;51.420;-0.040;2023-05-10T12:03:09;19.30;99.90
45837;DHT22;31548;51.420;-0.040;2023-05-10T12:05:37;19.20;99.90
45837;DHT22;31548;51.420;-0.040;2023-05-10T12:08:11;19.20;99.90
45837;DHT22;31548;51.420;-0.040;2023-05-10T12:10:39;19.10;99.90
45837;DHT22;31548;51.420;-0.040;2023-05-10T12:13:11;18.90;99.90
45837;DHT22;31548;51.420;-0.040;2023-05-10T12:15:40;18.80;99.90
45837;DHT22;31548;51.420;-0.040;2023-05-10T12:18:09;18.70;99.90
45837;DHT22;31548;51.420;-0.040;2023-05-10T12:20:38;18.70;99.90
45837;DHT22;31548;51.420;-0.040;2023-05-10T12:23:07;18.50;99.90
45837;DHT22;31548;51.420;-0.040;2023-05-10T12:25:37;18.50;99.90
45837;DHT22;31548;51.420;-0.040;2023-05-10T12:28:07;18.50;99.90
45837;DHT22;31548;51.420;-0.040;2023-05-10T12:30:35;18.30;99.90
45837;DHT22;31548;51.420;-0.040;2023-05-10T12:33:13;18.30;99.90
45837;DHT22;31548;51.420;-0.040;2023-05-10T12:35:53;18.20;99.90
45837;DHT22;31548;51.420;-0.040;2023-05-10T12:38:33;18.20;99.90
45837;DHT22;31548;51.420;-0.040;2023-05-10T12:41:06;18.30;99.90
45837;DHT22;31548;51.420;-0.040;2023-05-10T12:43:34;18.30;99.90
45837;DHT22;31548;51.420;-0.040;2023-05-10T12:46:09;18.20;99.90
45837;DHT22;31548;51.420;-0.040;2023-05-10T12:48:38;18.10;99.90
45837;DHT22;31548;51.420;-0.040;2023-05-10T12:51:06;18.00;99.90
45837;DHT22;31548;51.420;-0.040;2023-05-10T12:53:36;18.00;99.90
45837;DHT22;31548;51.420;-0.040;2023-05-10T12:56:03;18.20;99.90
45837;DHT22;31548;51.420;-0.040;2023-05-10T12:58:31;18.50;99.90
45837;DHT22;31548;51.420;-0.040;2023-05-10T13:01:02;18.60;99.90
45837;DHT22;31548;51.420;-0.040;2023-05-10T13:03:30;18.70;99.90
45837;DHT22;31548;51.420;-0.040;2023-05-10T13:05:57;19.00;99.90
45837;DHT22;31548;51.420;-0.040;2023-05-10T13:08:24;19.20;99.90
45837;DHT22;31548;51.420;-0.040;2023-05-10T13:10:52;19.10;99.90
45837;DHT22;31548;51.420;-0.040;2023-05-10T13:13:19;19.20;99.90
45837;DHT22;31548;51.420;-0.040;2023-05-10T13:15:47;19.00;99.90
45837;DHT22;31548;51.420;-0.040;2023-05-10T13:18:14;19.00;99.90
45837;DHT22;31548;51.420;-0.040;2023-05-10T13:20:41;18.80;99.90
45837;DHT22;31548;51.420;-0.040;2023-05-10T13:23:10;18.60;99.90
45837;DHT22;31548;51.420;-0.040;2023-05-10T13:25:37;18.60;99.90
45837;DHT22;31548;51.420;-0.040;2023-05-10T13:28:05;18.50;99.90
45837;DHT22;31548;51.420;-0.040;2023-05-10T13:30:32;18.20;99.90
45837;DHT22;31548;51.420;-0.040;2023-05-10T13:32:59;18.20;99.90
45837;DHT22;31548;51.420;-0.040;2023-05-10T13:35:26;18.20;99.90
45837;DHT22;31548;51.420;-0.040;2023-05-10T13:37:53;18.10;99.90
45837;DHT22;31548;51.420;-0.040;2023-05-10T13:40:23;18.10;99.90
45837;DHT22;31548;51.420;-0.040;2023-05-10T13:42:50;17.80;99.90
45837;DHT22;31548;51.420;-0.040;2023-05-10T13:45:17;17.70;99.90
45837;DHT22;31548;51.420;-0.040;2023-05-10T13:47:45;17.60;99.90
45837;DHT22;31548;51.420;-0.040;2023-05-10T13:50:12;17.20;99.90
45837;DHT22;31548;51.420;-0.040;2023-05-10T13:52:40;17.00;99.90
45837;DHT22;31548;51.420;-0.040;2023-05-10T13:55:07;16.70;99.90
45837;DHT22;31548;51.420;-0.040;2023-05-10T13:57:34;16.60;99.90
45837;DHT22;31548;51.420;-0.040;2023-05-10T14:00:03;16.30;99.90
45837;DHT22;31548;51.420;-0.040;2023-05-10T14:02:33;16.00;99.90
45837;DHT22;31548;51.420;-0.040;2023-05-10T14:05:01;15.90;99.90
45837;DHT22;31548;51.420;-0.040;2023-05-10T14:07:28;15.90;99.90
45837;DHT22;31548;51.420;-0.040;2023-05-10T14:09:56;15.80;99.90
45837;DHT22;31548;51.420;-0.040;2023-05-10T14:12:23;15.80;99.90
45837;DHT22;31548;51.420;-0.040;2023-05-10T14:14:50;15.90;99.90
45837;DHT22;31548;51.420;-0.040;2023-05-10T14:17:17;15.70;99.90
45837;DHT22;31548;51.420;-0.040;2023-05-10T14:19:44;15.70;99.90
45837;DHT22;31548;51.420;-0.040;2023-05-10T14:22:12;15.90;99.90
45837;DHT22;31548;51.420;-0.040;2023-05-10T14:24:39;16.10;99.90
45837;DHT22;31548;51.420;-0.040;2023-05-10T14:27:06;16.60;99.90
45837;DHT22;31548;51.420;-0.040;2023-05-10T14:29:33;17.10;99.90
45837;DHT22;31548;51.420;-0.040;2023-05-10T14:32:01;17.20;99.90
45837;DHT22;31548;51.420;-0.040;2023-05-10T14:34:29;17.50;99.90
45837;DHT22;31548;51.420;-0.040;2023-05-10T14:36:57;17.70;99.90
45837;DHT22;31548;51.420;-0.040;2023-05-10T14:39:24;18.10;99.90
45837;DHT22;31548;51.420;-0.040;2023-05-10T14:41:51;18.70;99.90
45837;DHT22;31548;51.420;-0.040;2023-05-10T14:44:19;19.30;99.90
45837;DHT22;31548;51.420;-0.040;2023-05-10T14:46:46;19.90;99.90
45837;DHT22;31548;51.420;-0.040;2023-05-10T14:49:15;20.50;99.90
45837;DHT22;31548;51.420;-0.040;2023-05-10T14:51:42;20.80;99.90
45837;DHT22;31548;51.420;-0.040;2023-05-10T14:54:09;20.30;99.90
45837;DHT22;31548;51.420;-0.040;2023-05-10T14:56:37;21.00;99.90
45837;DHT22;31548;51.420;-0.040;2023-05-10T14:59:04;21.60;99.90
45837;DHT22;31548;51.420;-0.040;2023-05-10T15:01:32;21.10;99.90
45837;DHT22;31548;51.420;-0.040;2023-05-10T15:04:00;20.10;99.90
45837;DHT22;31548;51.420;-0.040;2023-05-10T15:06:32;19.70;99.90
45837;DHT22;31548;51.420;-0.040;2023-05-10T15:09:01;19.50;99.90
45837;DHT22;31548;51.420;-0.040;2023-05-10T15:11:28;19.10;99.90
45837;DHT22;31548;51.420;-0.040;2023-05-10T15:13:56;18.60;99.90
45837;DHT22;31548;51.420;-0.040;2023-05-10T15:16:23;18.20;99.90
45837;DHT22;31548;51.420;-0.040;2023-05-10T15:18:51;17.90;99.90
45837;DHT22;31548;51.420;-0.040;2023-05-10T15:21:18;17.70;99.90
45837;DHT22;31548;51.420;-0.040;2023-05-10T15:23:45;18.40;99.90
45837;DHT22;31548;51.420;-0.040;2023-05-10T15:26:13;19.00;99.90
45837;DHT22;31548;51.420;-0.040;2023-05-10T15:28:40;19.70;99.90
45837;DHT22;31548;51.420;-0.040;2023-05-10T15:31:07;20.20;99.90
45837;DHT22;31548;51.420;-0.040;2023-05-10T15:33:36;21.00;99.90
45837;DHT22;31548;51.420;-0.040;2023-05-10T15:36:04;21.60;99.90
45837;DHT22;31548;51.420;-0.040;2023-05-10T15:38:31;21.20;99.90
45837;DHT22;31548;51.420;-0.040;2023-05-10T15:40:58;21.70;99.90
45837;DHT22;31548;51.420;-0.040;2023-05-10T15:43:25;22.20;99.90
45837;DHT22;31548;51.420;-0.040;2023-05-10T15:45:53;22.70;99.90
45837;DHT22;31548;51.420;-0.040;2023-05-10T15:48:20;22.30;99.90
45837;DHT22;31548;51.420;-0.040;2023-05-10T15:50:47;21.40;99.90
45837;DHT22;31548;51.420;-0.040;2023-05-10T15:53:15;20.90;99.90